Time;durP1;ratioP1;P1;durP2;ratioP2;P2;SDS_P1;SDS_P2;PMS_P1;PMS_P2;Temp;Humidity;BMP_temperature;BMP_pressure;BME280_temperature;BME280_humidity;BME280_pressure;Samples;Min_cycle;Max_cycle;Signal;HPM_P1;HPM_P2
2021/05/31 00:00:43;;;;;;;22.65;9.68;;;;;;;18.12;64.91;100099.25;4919662;29;20135;-76
2021/05/31 00:03:10;;;;;;;27.42;10.13;;;;;;;18.11;65.29;100095.63;4919430;29;20059;-71
2021/05/31 00:05:37;;;;;;;28.35;9.70;;;;;;;17.98;65.07;100060.81;4919431;29;20080;-71
2021/05/31 00:08:04;;;;;;;24.15;10.23;;;;;;;18.13;65.43;100087.63;4918559;29;20170;-75
2021/05/31 00:10:31;;;;;;;24.30;10.77;;;;;;;17.99;65.60;100078.59;4919659;29;20127;-70
2021/05/31 00:12:58;;;;;;;21.67;11.50;;;;;;;18.09;65.60;100085.84;4919514;29;20048;-75
2021/05/31 00:15:28;;;;;;;25.38;11.23;;;;;;;18.07;65.59;100077.69;4918228;29;20494;-73
2021/05/31 00:17:55;;;;;;;21.95;10.40;;;;;;;17.99;65.92;100070.94;4919120;29;20095;-71
2021/05/31 00:20:22;;;;;;;24.88;10.95;;;;;;;17.95;66.02;100064.31;4919473;29;20075;-76
2021/05/31 00:22:50;;;;;;;20.42;11.02;;;;;;;17.88;66.53;100054.72;4918349;29;20044;-76
2021/05/31 00:25:17;;;;;;;18.75;9.48;;;;;;;17.86;66.21;100059.91;4919337;29;20076;-70
2021/05/31 00:27:44;;;;;;;25.02;10.38;;;;;;;17.61;66.54;100020.16;4919921;29;20072;-68
2021/05/31 00:30:12;;;;;;;20.80;10.20;;;;;;;17.81;66.26;100041.16;4919781;29;20048;-69
2021/05/31 00:32:39;;;;;;;22.55;9.38;;;;;;;17.91;66.21;100054.03;4919031;29;20135;-69
2021/05/31 00:35:09;;;;;;;21.98;10.23;;;;;;;18.00;66.37;100049.16;4918944;29;20506;-69
2021/05/31 00:37:37;;;;;;;20.35;10.20;;;;;;;18.11;66.06;100050.41;4918978;29;20048;-69
2021/05/31 00:40:05;;;;;;;23.55;9.90;;;;;;;18.16;65.43;100043.75;4918759;29;20083;-69
2021/05/31 00:42:31;;;;;;;19.88;9.43;;;;;;;18.15;65.26;100037.25;4918068;29;20418;-70
2021/05/31 00:44:58;;;;;;;20.33;9.85;;;;;;;18.11;65.39;100035.44;4918771;29;20080;-70
2021/05/31 00:47:25;;;;;;;22.08;9.82;;;;;;;18.08;64.80;100044.63;4918871;29;20563;-70
2021/05/31 00:49:52;;;;;;;25.73;10.75;;;;;;;18.07;64.89;100042.97;4918691;29;20052;-70
2021/05/31 00:52:21;;;;;;;23.50;11.48;;;;;;;18.05;65.16;100026.38;4902175;29;20135;-68
2021/05/31 00:54:48;;;;;;;25.85;11.43;;;;;;;17.98;65.33;100029.75;4918617;29;20048;-68
2021/05/31 00:57:16;;;;;;;27.15;11.57;;;;;;;17.90;65.05;100021.31;4918561;29;20214;-70
2021/05/31 00:59:44;;;;;;;23.20;11.95;;;;;;;17.86;65.31;100015.53;4918379;29;20144;-71
2021/05/31 01:02:11;;;;;;;23.38;10.73;;;;;;;17.89;65.27;100026.13;4918817;29;20135;-75
2021/05/31 01:04:38;;;;;;;21.13;11.10;;;;;;;17.84;65.27;100023.50;4918384;29;20083;-73
2021/05/31 01:07:19;;;;;;;22.05;10.45;;;;;;;17.79;64.82;100009.59;4918408;29;20137;-73
2021/05/31 01:09:58;;;;;;;28.25;11.70;;;;;;;17.88;64.89;100029.28;4918635;29;20127;-72
2021/05/31 01:12:28;;;;;;;30.00;12.20;;;;;;;17.84;65.16;100015.03;4918140;29;20090;-74
2021/05/31 01:15:04;;;;;;;30.67;13.30;;;;;;;17.83;65.40;100032.31;4918297;29;20138;-74
2021/05/31 01:17:48;;;;;;;25.63;11.30;;;;;;;17.72;65.24;100020.56;4918579;29;20055;-74
2021/05/31 01:20:56;;;;;;;31.13;12.35;;;;;;;17.67;65.05;100021.56;4918633;29;20079;-73
2021/05/31 01:23:28;;;;;;;25.40;11.98;;;;;;;17.70;65.27;100018.06;4918335;29;20488;-73
2021/05/31 01:26:10;;;;;;;27.38;12.25;;;;;;;17.70;64.99;100020.91;4918189;29;20131;-74
2021/05/31 01:28:54;;;;;;;27.48;12.70;;;;;;;17.69;64.93;100007.97;4918170;29;20139;-66
2021/05/31 01:31:33;;;;;;;28.85;13.25;;;;;;;17.66;64.90;100003.00;4917928;29;20083;-67
2021/05/31 01:34:03;;;;;;;30.73;13.10;;;;;;;17.62;65.08;99999.19;4918135;29;20052;-67
2021/05/31 01:36:32;;;;;;;;;;;;;;;17.74;64.78;100007.78;4918495;29;20078;-67
2021/05/31 01:39:00;;;;;;;30.42;11.02;;;;;;;17.35;65.27;99949.72;4901254;29;20018;-67
2021/05/31 01:41:27;;;;;;;30.60;12.80;;;;;;;17.60;65.14;99995.88;4918872;29;20052;-67
2021/05/31 01:43:54;;;;;;;35.05;13.45;;;;;;;17.64;65.55;99996.88;4917891;29;20139;-67
2021/05/31 01:46:21;;;;;;;27.23;12.00;;;;;;;17.68;65.04;100002.66;4917589;29;20552;-67
2021/05/31 01:48:51;;;;;;;24.83;11.48;;;;;;;17.65;65.09;99998.53;4917596;29;20055;-73
2021/05/31 01:51:20;;;;;;;32.97;11.77;;;;;;;17.68;65.20;99988.53;4917439;29;20139;-67
2021/05/31 01:53:47;;;;;;;30.92;12.55;;;;;;;17.64;65.20;99991.22;4916960;29;20058;-67
2021/05/31 01:56:15;;;;;;;27.60;12.00;;;;;;;17.59;65.13;99977.28;4917461;29;20458;-66
2021/05/31 01:58:43;;;;;;;27.60;12.38;;;;;;;17.60;65.53;99986.59;4917457;29;20091;-66
2021/05/31 02:01:10;;;;;;;25.02;12.18;;;;;;;17.57;65.28;99985.25;4917411;29;20409;-66
2021/05/31 02:03:38;;;;;;;31.48;11.40;;;;;;;17.57;65.10;99985.25;4917740;29;20067;-76
2021/05/31 02:06:05;;;;;;;26.83;11.80;;;;;;;17.53;65.08;99985.13;4917692;29;20127;-68
2021/05/31 02:08:32;;;;;;;29.83;13.27;;;;;;;17.44;65.30;99980.72;4917534;29;20099;-67
2021/05/31 02:11:12;;;;;;;33.30;12.48;;;;;;;17.41;65.42;99972.94;4917453;29;20399;-67
2021/05/31 02:13:42;;;;;;;32.67;13.07;;;;;;;17.53;65.07;99978.66;4917142;29;20147;-67
2021/05/31 02:16:22;;;;;;;23.35;13.48;;;;;;;17.51;65.33;99975.38;4900466;29;20141;-67
2021/05/31 02:18:52;;;;;;;32.45;13.52;;;;;;;17.52;65.39;99977.81;4917395;29;20442;-67
2021/05/31 02:21:20;;;;;;;26.05;12.77;;;;;;;17.53;65.12;99971.00;4917129;29;20058;-67
2021/05/31 02:23:49;;;;;;;31.50;12.95;;;;;;;17.54;65.57;99963.41;4917657;29;20135;-66
2021/05/31 02:26:18;;;;;;;28.17;13.65;;;;;;;17.49;65.46;99969.22;4916987;29;20084;-67
2021/05/31 02:28:46;;;;;;;28.30;13.23;;;;;;;17.52;65.43;99965.72;4917020;29;20567;-66
2021/05/31 02:31:17;;;;;;;28.02;13.05;;;;;;;17.49;65.34;99960.75;4900507;29;20079;-66
2021/05/31 02:33:46;;;;;;;28.00;14.13;;;;;;;17.47;65.18;99969.56;4917254;29;20052;-67
2021/05/31 02:36:14;;;;;;;32.17;13.57;;;;;;;17.45;65.25;99971.91;4917220;29;20054;-67
2021/05/31 02:38:41;;;;;;;26.75;13.93;;;;;;;17.44;65.54;99970.25;4916835;29;20139;-67
2021/05/31 02:41:09;;;;;;;31.55;13.32;;;;;;;17.28;65.53;99944.59;4916926;29;20135;-67
2021/05/31 02:43:37;;;;;;;32.28;13.98;;;;;;;17.41;65.45;99968.09;4917500;29;20130;-69
2021/05/31 02:46:03;;;;;;;32.13;14.35;;;;;;;17.39;65.22;99972.44;4899853;29;20135;-68
2021/05/31 02:48:30;;;;;;;28.77;13.52;;;;;;;17.39;65.20;99969.59;4916143;29;20052;-69
2021/05/31 02:50:57;;;;;;;31.58;14.27;;;;;;;17.34;65.50;99953.72;4916917;29;20139;-69
2021/05/31 02:53:25;;;;;;;34.97;14.57;;;;;;;17.38;65.26;99951.03;4917261;29;20128;-66
2021/05/31 02:55:53;;;;;;;37.72;16.52;;;;;;;17.37;65.55;99946.56;4917000;29;20438;-63
2021/05/31 02:58:20;;;;;;;36.80;16.17;;;;;;;16.77;65.34;99844.97;4916906;29;20044;-67
2021/05/31 03:00:47;;;;;;;29.92;14.90;;;;;;;17.27;65.57;99923.19;4917461;29;20151;-68
2021/05/31 03:03:14;;;;;;;32.05;14.77;;;;;;;17.31;65.96;99931.81;4916766;29;20059;-68
2021/05/31 03:05:40;;;;;;;33.47;15.27;;;;;;;17.38;66.22;99953.84;4917791;29;20052;-68
2021/05/31 03:08:07;;;;;;;35.17;15.60;;;;;;;17.40;66.37;99945.84;4920860;29;20086;-68
2021/05/31 03:10:34;;;;;;;46.22;17.17;;;;;;;17.25;66.57;99914.22;4904151;29;20131;-71
2021/05/31 03:13:03;;;;;;;44.70;17.20;;;;;;;17.40;67.28;99920.44;4920705;29;20168;-70
2021/05/31 03:15:30;;;;;;;27.80;13.20;;;;;;;17.47;67.28;99940.50;4920205;29;20147;-68
2021/05/31 03:17:57;;;;;;;26.63;12.73;;;;;;;17.36;67.43;99931.59;4920347;29;20048;-69
2021/05/31 03:20:28;;;;;;;34.67;13.45;;;;;;;17.41;67.42;99933.41;4920178;29;20094;-70
2021/05/31 03:22:56;;;;;;;28.10;13.45;;;;;;;17.42;67.25;99933.06;4920170;29;20142;-68
2021/05/31 03:25:23;;;;;;;31.77;14.35;;;;;;;17.50;67.02;99942.63;4920170;29;20090;-71
2021/05/31 03:27:52;;;;;;;32.30;13.25;;;;;;;17.54;66.95;99932.34;4920527;29;20048;-73
2021/05/31 03:30:20;;;;;;;25.67;11.40;;;;;;;17.36;66.35;99920.31;4920106;29;20063;-72
2021/05/31 03:32:47;;;;;;;29.77;11.43;;;;;;;17.46;66.30;99941.66;4920256;29;20098;-73
2021/05/31 03:35:14;;;;;;;21.75;11.45;;;;;;;17.43;65.82;99939.53;4920264;29;20454;-73
2021/05/31 03:37:42;;;;;;;28.00;12.02;;;;;;;17.13;66.09;99891.59;4919967;29;20088;-73
2021/05/31 03:40:11;;;;;;;36.78;15.27;;;;;;;17.42;65.84;99933.06;4919972;29;20060;-73
2021/05/31 03:42:38;;;;;;;36.80;13.95;;;;;;;17.31;65.78;99926.16;4919842;29;20079;-71
2021/05/31 03:45:07;;;;;;;38.72;16.45;;;;;;;17.30;65.96;99927.34;4920147;29;20083;-72
2021/05/31 03:47:34;;;;;;;34.03;16.77;;;;;;;17.23;66.13;99930.69;4919995;29;20131;-71
2021/05/31 03:50:02;;;;;;;36.10;15.35;;;;;;;16.74;66.04;99867.34;4920344;29;20465;-73
2021/05/31 03:52:29;;;;;;;27.65;14.02;;;;;;;17.10;65.89;99931.75;4919685;29;20135;-75
2021/05/31 03:54:55;;;;;;;29.60;13.52;;;;;;;17.04;66.03;99916.19;4919952;29;20460;-74
2021/05/31 03:57:22;;;;;;;29.23;13.57;;;;;;;16.99;65.80;99922.00;4919928;29;20128;-74
2021/05/31 03:59:51;;;;;;;28.70;13.55;;;;;;;16.85;65.49;99898.84;4902750;29;20056;-74
2021/05/31 04:02:18;;;;;;;34.28;12.70;;;;;;;16.90;65.75;99915.59;4919864;29;20445;-74
2021/05/31 04:04:48;;;;;;;27.83;12.45;;;;;;;16.65;65.92;99889.97;4919458;29;20044;-66
2021/05/31 04:12:49;;;;;;;23.73;12.03;;;;;;;16.63;65.75;99899.91;4919360;29;20473;-63
2021/05/31 04:15:16;;;;;;;25.77;12.90;;;;;;;16.68;65.60;99906.16;4919259;29;20151;-61
2021/05/31 04:17:42;;;;;;;22.80;11.80;;;;;;;16.66;65.59;99910.53;4918633;29;20052;-71
2021/05/31 04:20:11;;;;;;;31.73;12.63;;;;;;;16.61;65.93;99900.22;4918999;29;20141;-67
2021/05/31 04:22:39;;;;;;;29.10;12.27;;;;;;;16.43;65.68;99867.66;4919239;29;20135;-64
2021/05/31 04:25:06;;;;;;;26.50;11.43;;;;;;;16.49;65.73;99888.84;4919785;29;20104;-65
2021/05/31 04:27:33;;;;;;;27.90;12.05;;;;;;;16.51;65.87;99883.69;4919083;29;20139;-64
2021/05/31 04:30:00;;;;;;;24.27;11.82;;;;;;;16.51;65.57;99889.31;4919120;29;20221;-62
2021/05/31 04:32:27;;;;;;;31.13;12.87;;;;;;;16.51;65.62;99890.19;4918901;29;20589;-60
2021/05/31 04:34:54;;;;;;;28.70;12.13;;;;;;;16.40;65.66;99873.94;4919281;29;20123;-62
2021/05/31 04:37:21;;;;;;;28.30;12.83;;;;;;;16.34;65.75;99865.69;4919136;29;20079;-64
2021/05/31 04:39:47;;;;;;;27.77;12.90;;;;;;;16.52;65.76;99889.00;4919008;29;20151;-72
2021/05/31 04:42:14;;;;;;;40.60;15.33;;;;;;;16.56;65.99;99897.63;4919138;29;20123;-60
2021/05/31 04:44:41;;;;;;;29.13;12.67;;;;;;;16.57;65.67;99902.06;4919047;29;20123;-63
2021/05/31 04:47:08;;;;;;;35.63;14.25;;;;;;;16.52;65.67;99893.81;4919021;29;20122;-60
2021/05/31 04:49:35;;;;;;;38.13;16.20;;;;;;;16.54;66.19;99903.56;4919122;29;20446;-59
2021/05/31 04:52:02;;;;;;;37.95;16.02;;;;;;;16.19;66.06;99835.22;4918880;29;20127;-72
2021/05/31 04:54:29;;;;;;;29.40;13.90;;;;;;;16.38;65.97;99868.66;4919112;29;20131;-71
2021/05/31 04:56:56;;;;;;;26.70;12.90;;;;;;;16.64;65.91;99905.19;4919346;29;20156;-67
2021/05/31 04:59:23;;;;;;;27.47;11.47;;;;;;;16.58;65.92;99895.25;4918456;29;20084;-70
2021/05/31 05:01:50;;;;;;;27.80;12.27;;;;;;;16.52;66.17;99888.19;4918673;29;20075;-67
2021/05/31 05:04:17;;;;;;;38.47;15.77;;;;;;;16.45;65.89;99888.69;4901974;29;20058;-67
2021/05/31 05:06:43;;;;;;;27.02;13.77;;;;;;;16.62;65.86;99889.81;4918875;29;20052;-68
2021/05/31 05:09:10;;;;;;;35.65;14.13;;;;;;;16.64;66.19;99893.09;4918280;29;20139;-72
2021/05/31 05:11:37;;;;;;;40.20;16.43;;;;;;;16.59;66.05;99888.50;4918255;29;20135;-63
2021/05/31 05:14:04;;;;;;;30.42;14.85;;;;;;;16.66;66.22;99899.25;4918589;29;20394;-63
2021/05/31 05:16:31;;;;;;;29.80;14.80;;;;;;;16.63;65.96;99888.63;4918240;29;20135;-64
2021/05/31 05:18:58;;;;;;;34.80;14.55;;;;;;;16.31;66.12;99846.63;4918368;29;20048;-66
2021/05/31 05:21:25;;;;;;;30.63;13.47;;;;;;;16.48;65.87;99870.28;4917919;29;20052;-67
2021/05/31 05:23:52;;;;;;;32.83;13.07;;;;;;;16.54;66.07;99883.84;4918381;29;20156;-63
2021/05/31 05:26:19;;;;;;;33.53;14.52;;;;;;;16.57;66.11;99871.06;4918238;29;20076;-69
2021/05/31 05:28:48;;;;;;;34.27;14.53;;;;;;;16.52;65.80;99854.34;4918009;29;20056;-65
2021/05/31 05:31:15;;;;;;;27.80;13.00;;;;;;;16.65;66.12;99887.16;4917845;29;20059;-58
2021/05/31 05:33:42;;;;;;;37.60;15.07;;;;;;;16.71;65.99;99876.50;4918036;29;20052;-74
2021/05/31 05:42:06;;;;;;;34.00;14.18;;;;;;;16.86;66.24;99867.50;4918039;29;20079;-65
2021/05/31 05:49:45;;;;;;;31.42;12.77;;;;;;;17.15;66.22;99872.31;4917580;29;20481;-59
2021/05/31 05:52:13;;;;;;;28.55;13.32;;;;;;;17.22;66.18;99874.59;4917506;29;20080;-71
2021/05/31 05:54:41;;;;;;;32.35;13.18;;;;;;;17.32;66.07;99862.06;4917877;29;20130;-72
2021/05/31 05:57:08;;;;;;;29.58;12.52;;;;;;;17.07;65.77;99811.13;4917792;29;20151;-72
2021/05/31 05:59:35;;;;;;;28.63;12.45;;;;;;;17.44;66.17;99843.22;4917350;29;20138;-71
2021/05/31 06:02:02;;;;;;;33.72;13.73;;;;;;;17.63;65.84;99858.84;4900622;29;20489;-72
2021/05/31 06:04:29;;;;;;;26.35;13.13;;;;;;;17.84;65.60;99858.84;4917439;29;20140;-73
2021/05/31 06:06:56;;;;;;;25.63;12.90;;;;;;;18.07;65.46;99865.78;4917515;29;20048;-72
2021/05/31 06:09:22;;;;;;;23.38;12.45;;;;;;;18.22;65.13;99870.78;4916926;29;20072;-72
2021/05/31 06:11:50;;;;;;;28.48;12.82;;;;;;;17.97;64.75;99813.38;4917232;29;20071;-72
2021/05/31 06:14:17;;;;;;;35.67;13.98;;;;;;;18.52;64.54;99864.13;4917283;29;20454;-69
2021/05/31 06:16:43;;;;;;;29.42;13.07;;;;;;;18.59;64.30;99873.69;4916795;29;20060;-73
2021/05/31 06:19:10;;;;;;;31.08;14.82;;;;;;;18.57;64.16;99869.56;4916805;29;20080;-72
2021/05/31 06:21:37;;;;;;;29.65;15.07;;;;;;;18.59;64.59;99868.03;4916963;29;20143;-72
2021/05/31 06:24:05;;;;;;;31.27;14.15;;;;;;;18.57;64.41;99870.41;4917259;29;20127;-72
2021/05/31 06:26:32;;;;;;;31.05;14.75;;;;;;;18.64;64.63;99870.66;4916987;29;20058;-72
2021/05/31 06:28:59;;;;;;;30.70;15.93;;;;;;;18.73;64.23;99872.56;4917021;29;20071;-71
2021/05/31 06:31:26;;;;;;;32.40;14.65;;;;;;;18.90;64.13;99878.81;4916537;29;20056;-72
2021/05/31 06:33:53;;;;;;;25.30;13.82;;;;;;;18.93;64.00;99872.44;4917127;29;20044;-70
2021/05/31 06:36:20;;;;;;;30.85;15.52;;;;;;;18.92;63.70;99838.88;4915738;29;20083;-71
2021/05/31 06:38:46;;;;;;;33.00;16.27;;;;;;;19.36;63.41;99890.00;4916711;29;20131;-70
2021/05/31 06:41:13;;;;;;;31.33;15.15;;;;;;;19.46;63.26;99883.88;4916255;29;20095;-70
2021/05/31 06:43:40;;;;;;;33.72;15.93;;;;;;;19.44;62.94;99869.22;4914999;29;20135;-70
2021/05/31 06:46:08;;;;;;;31.08;15.50;;;;;;;19.70;62.75;99883.00;4916539;29;20058;-70
2021/05/31 06:48:35;;;;;;;32.30;15.38;;;;;;;19.85;62.48;99882.25;4917202;29;20123;-70
2021/05/31 06:51:03;;;;;;;25.02;13.70;;;;;;;19.93;62.12;99874.81;4916495;29;20059;-71
2021/05/31 06:53:30;;;;;;;30.60;15.38;;;;;;;20.04;62.15;99890.09;4916548;29;20088;-70
2021/05/31 06:55:57;;;;;;;32.15;17.00;;;;;;;20.19;62.07;99884.81;4916945;29;20060;-70
2021/05/31 06:58:24;;;;;;;37.85;16.70;;;;;;;20.23;61.54;99880.91;4916413;29;20090;-69
2021/05/31 07:00:50;;;;;;;29.48;16.25;;;;;;;20.44;61.32;99888.34;4916363;29;20143;-70
2021/05/31 07:03:17;;;;;;;32.50;16.13;;;;;;;20.51;61.09;99889.41;4916703;29;20058;-70
2021/05/31 07:05:44;;;;;;;30.13;14.10;;;;;;;20.51;61.14;99880.06;4916444;29;20474;-70
2021/05/31 07:08:11;;;;;;;36.42;16.98;;;;;;;20.57;60.94;99893.63;4917195;29;20517;-69
2021/05/31 07:10:38;;;;;;;34.25;14.45;;;;;;;20.49;60.92;99903.09;4916679;29;20123;-70
2021/05/31 07:13:05;;;;;;;34.72;16.23;;;;;;;20.56;60.60;99909.00;4916834;29;20080;-68
2021/05/31 07:15:33;;;;;;;28.10;15.48;;;;;;;20.42;60.63;99902.09;4916170;29;20056;-71
2021/05/31 07:18:01;;;;;;;30.55;14.68;;;;;;;20.34;60.98;99923.72;4916243;29;20096;-71
2021/05/31 07:20:28;;;;;;;29.13;15.55;;;;;;;20.09;61.11;99898.31;4916632;29;20075;-72
2021/05/31 07:22:55;;;;;;;31.25;16.17;;;;;;;20.05;61.01;99894.56;4899945;29;20058;-72
2021/05/31 07:25:22;;;;;;;30.85;14.55;;;;;;;20.17;61.21;99878.69;4916472;29;20044;-70
2021/05/31 07:27:49;;;;;;;24.00;12.85;;;;;;;20.50;60.77;99887.75;4916448;29;20585;-65
2021/05/31 07:30:18;;;;;;;25.67;13.57;;;;;;;20.96;60.06;99910.03;4917082;29;20438;-65
2021/05/31 07:32:45;;;;;;;26.20;13.65;;;;;;;21.20;59.64;99909.84;4916395;29;20086;-68
2021/05/31 07:35:13;;;;;;;21.70;13.40;;;;;;;21.32;59.25;99900.38;4916371;29;20099;-67
2021/05/31 07:37:40;;;;;;;28.15;14.35;;;;;;;21.53;59.00;99920.78;4916725;29;20131;-64
2021/05/31 07:40:10;;;;;;;28.33;14.25;;;;;;;21.60;58.69;99911.63;4916369;29;20576;-64
2021/05/31 07:42:37;;;;;;;;;;;;;;;21.49;59.58;99913.38;4916786;29;20532;-67
2021/05/31 07:45:06;;;;;;;25.90;14.13;;;;;;;21.58;58.96;99896.16;4916530;29;20022;-68
2021/05/31 07:47:33;;;;;;;24.55;12.63;;;;;;;;;;4916222;29;20136;-67
2021/05/31 07:50:00;;;;;;;23.95;12.90;;;;;;;21.81;58.33;99914.09;4916167;29;20055;-70
2021/05/31 07:52:28;;;;;;;29.90;14.90;;;;;;;21.94;57.96;99915.63;4918351;29;20079;-68
2021/05/31 07:54:56;;;;;;;28.20;14.48;;;;;;;22.08;57.77;99915.09;4919883;29;20052;-64
2021/05/31 07:57:24;;;;;;;26.27;13.57;;;;;;;22.07;57.37;99904.13;4919819;29;20123;-69
2021/05/31 07:59:52;;;;;;;27.52;14.82;;;;;;;22.24;57.29;99915.06;4919678;29;20052;-65
2021/05/31 08:02:20;;;;;;;26.95;13.55;;;;;;;22.28;57.37;99913.13;4919516;29;20048;-66
2021/05/31 08:04:47;;;;;;;31.42;14.68;;;;;;;22.45;57.11;99923.22;4919281;29;20139;-66
2021/05/31 08:07:14;;;;;;;30.77;15.70;;;;;;;22.52;56.95;99922.53;4919703;29;20387;-68
2021/05/31 08:09:41;;;;;;;29.25;14.70;;;;;;;22.63;56.65;99934.94;4919576;29;20127;-68
2021/05/31 08:12:09;;;;;;;27.77;15.18;;;;;;;22.66;56.25;99923.59;4919681;29;20609;-70
2021/05/31 08:14:36;;;;;;;27.60;14.80;;;;;;;22.67;56.48;99930.97;4919200;29;20048;-64
2021/05/31 08:17:04;;;;;;;27.60;14.80;;;;;;;22.66;55.84;99926.47;4880631;29;20113;-68
2021/05/31 08:19:32;;;;;;;27.58;14.05;;;;;;;22.62;55.93;99938.97;4881433;29;20128;-71
2021/05/31 08:22:00;;;;;;;22.80;12.68;;;;;;;22.40;55.64;99943.44;4881604;29;20088;-71
2021/05/31 08:24:28;;;;;;;22.27;12.10;;;;;;;22.05;55.56;99910.19;4882030;29;20139;-71
2021/05/31 08:26:55;;;;;;;18.90;10.38;;;;;;;22.27;55.40;99939.91;4882204;29;20546;-70
2021/05/31 08:29:22;;;;;;;19.27;10.50;;;;;;;22.25;55.14;99928.09;4881361;29;20091;-70
2021/05/31 08:31:50;;;;;;;15.75;10.05;;;;;;;22.43;55.07;99940.66;4895818;29;20462;-71
2021/05/31 08:34:17;;;;;;;13.82;9.25;;;;;;;22.57;55.11;99937.28;4881170;29;20056;-71
2021/05/31 08:36:45;;;;;;;15.25;9.93;;;;;;;22.54;54.63;99940.88;4881545;29;20081;-69
2021/05/31 08:39:12;;;;;;;15.27;8.85;;;;;;;22.14;55.19;99927.84;4881176;29;20461;-70
2021/05/31 08:41:40;;;;;;;18.17;10.77;;;;;;;21.96;55.88;99913.25;4881179;29;20088;-70
2021/05/31 08:44:07;;;;;;;18.90;11.27;;;;;;;21.98;56.05;99930.75;4881448;29;20402;-71
2021/05/31 08:46:36;;;;;;;21.45;12.32;;;;;;;22.09;55.55;99930.16;4881066;29;20463;-71
2021/05/31 08:49:05;;;;;;;19.35;10.85;;;;;;;21.86;55.93;99908.16;4881157;29;20091;-71
2021/05/31 08:51:33;;;;;;;18.55;10.48;;;;;;;21.84;56.24;99913.38;4881159;29;20052;-71
2021/05/31 08:54:01;;;;;;;16.25;9.68;;;;;;;21.93;56.28;99922.50;4880858;29;20053;-71
2021/05/31 08:56:28;;;;;;;18.40;10.93;;;;;;;22.03;55.64;99929.63;4895630;29;20479;-71
2021/05/31 08:58:55;;;;;;;22.67;10.02;;;;;;;22.09;55.80;99939.53;4881301;29;20049;-71
2021/05/31 09:01:24;;;;;;;16.92;9.45;;;;;;;22.03;55.99;99940.19;4881357;29;20132;-71
2021/05/31 09:03:57;;;;;;;22.75;9.75;;;;;;;21.97;56.24;99920.56;4880525;29;20403;-72
2021/05/31 09:06:26;;;;;;;14.02;8.25;;;;;;;22.35;55.97;99935.19;4880815;29;20552;-73
2021/05/31 09:09:02;;;;;;;16.13;7.70;;;;;;;22.25;55.81;99930.94;4881006;29;20140;-71
2021/05/31 09:11:30;;;;;;;19.40;8.65;;;;;;;22.53;55.54;99929.84;4880654;29;20494;-71
2021/05/31 09:13:59;;;;;;;19.00;10.23;;;;;;;22.52;55.59;99917.66;4880696;29;20084;-71
2021/05/31 09:16:28;;;;;;;14.38;7.97;;;;;;;22.41;55.62;99934.53;4908440;29;20152;-70
2021/05/31 09:18:57;;;;;;;;;;;;;;;22.08;56.26;99937.84;4919222;29;20434;-70
2021/05/31 09:21:28;;;;;;;12.48;7.97;;;;;;;21.87;56.12;99923.19;4918452;29;20013;-70
2021/05/31 09:23:54;;;;;;;13.18;8.27;;;;;;;22.01;56.02;99932.00;4918769;29;20532;-70
2021/05/31 09:26:21;;;;;;;11.80;7.40;;;;;;;22.10;56.24;99934.66;4917933;29;20135;-70
2021/05/31 09:29:03;;;;;;;16.95;7.45;;;;;;;21.89;55.96;99915.13;4918136;29;20083;-70
2021/05/31 09:31:31;;;;;;;14.55;6.97;;;;;;;21.89;56.22;99926.50;4918708;29;20083;-69
2021/05/31 09:33:59;;;;;;;10.20;6.30;;;;;;;22.00;56.27;99936.88;4918969;29;20142;-70
2021/05/31 09:36:32;;;;;;;11.93;6.57;;;;;;;22.14;55.81;99942.06;4917692;29;20544;-72
2021/05/31 09:38:59;;;;;;;11.07;6.43;;;;;;;22.06;56.31;99950.81;4917763;29;20140;-72
2021/05/31 09:41:33;;;;;;;13.57;6.30;;;;;;;21.97;56.03;99954.69;4917409;29;20139;-71
2021/05/31 09:44:08;;;;;;;12.20;7.03;;;;;;;21.92;56.09;99952.16;4916576;29;20135;-71
2021/05/31 09:46:40;;;;;;;11.70;6.30;;;;;;;21.80;56.28;99940.91;4900685;29;20087;-70
2021/05/31 09:49:13;;;;;;;9.43;5.65;;;;;;;21.73;56.54;99946.41;4900775;29;20500;-71
2021/05/31 09:51:54;;;;;;;12.25;6.28;;;;;;;21.66;56.52;99946.25;4917573;29;20138;-71
2021/05/31 09:54:51;;;;;;;10.20;5.80;;;;;;;21.59;56.63;99946.91;4917457;29;20489;-71
2021/05/31 09:57:28;;;;;;;9.90;6.72;;;;;;;21.56;56.73;99947.66;4917449;29;20147;-71
2021/05/31 09:59:58;;;;;;;14.45;6.30;;;;;;;21.51;56.88;99951.59;4917430;29;20048;-70
2021/05/31 10:02:58;;;;;;;10.80;5.80;;;;;;;21.33;57.05;99958.81;4917609;29;20139;-70
2021/05/31 10:10:32;;;;;;;9.05;4.95;;;;;;;21.16;57.38;99976.22;4917504;29;20135;-71
2021/05/31 10:13:00;;;;;;;6.80;4.15;;;;;;;21.04;57.46;99949.59;4917090;29;20082;-77
2021/05/31 10:15:33;;;;;;;6.53;4.50;;;;;;;21.06;57.52;99943.56;4916393;29;20487;-70
2021/05/31 10:18:01;;;;;;;8.23;4.78;;;;;;;21.47;57.11;99966.91;4917087;29;20140;-64
2021/05/31 10:20:29;;;;;;;7.88;4.10;;;;;;;21.25;57.22;99962.69;4916608;29;20135;-60
2021/05/31 10:23:01;;;;;;;9.18;4.85;;;;;;;21.29;57.22;99972.13;4917424;29;20052;-63
2021/05/31 10:25:29;;;;;;;8.88;4.93;;;;;;;21.52;56.89;99947.56;4916881;29;20560;-63
2021/05/31 10:28:05;;;;;;;8.98;4.63;;;;;;;22.05;56.54;99971.91;4917171;29;20127;-61
2021/05/31 10:30:46;;;;;;;9.77;5.50;;;;;;;22.16;56.30;99964.47;4916943;29;20058;-63
2021/05/31 10:33:16;;;;;;;7.28;4.40;;;;;;;22.16;56.38;99945.38;4917248;29;20048;-66
2021/05/31 10:35:45;;;;;;;9.60;5.18;;;;;;;22.62;55.99;99956.88;4916989;29;20091;-66
2021/05/31 10:38:21;;;;;;;7.63;4.45;;;;;;;22.83;55.30;99958.50;4900145;29;20054;-65
2021/05/31 10:40:53;;;;;;;9.80;4.90;;;;;;;23.09;55.25;99955.75;4916726;29;20080;-65
2021/05/31 10:43:22;;;;;;;10.75;4.78;;;;;;;23.37;54.87;99954.59;4917216;29;20115;-61
2021/05/31 10:45:59;;;;;;;8.18;4.68;;;;;;;24.06;54.17;99951.59;4916847;29;20583;-61
2021/05/31 10:48:27;;;;;;;8.75;4.72;;;;;;;24.46;52.87;99944.38;4916662;29;20055;-62
2021/05/31 10:51:00;;;;;;;10.00;5.30;;;;;;;24.64;52.54;99956.00;4916709;29;20141;-63
2021/05/31 10:53:35;;;;;;;9.90;5.40;;;;;;;24.80;51.92;99948.03;4916986;29;20075;-62
2021/05/31 10:56:10;;;;;;;9.82;5.25;;;;;;;24.93;51.67;99951.44;4916644;29;20083;-62
2021/05/31 10:58:50;;;;;;;7.53;4.15;;;;;;;25.15;51.32;99921.88;4917506;29;20131;-62
2021/05/31 11:01:20;;;;;;;8.50;4.43;;;;;;;25.41;51.36;99957.19;4916443;29;20091;-64
2021/05/31 11:03:52;;;;;;;10.90;5.00;;;;;;;25.64;50.31;99951.22;4916654;29;20079;-63
2021/05/31 11:06:24;;;;;;;9.73;5.28;;;;;;;25.65;50.32;99947.19;4917421;29;20080;-63
2021/05/31 11:08:55;;;;;;;10.48;5.00;;;;;;;25.87;50.05;99971.03;4916668;29;20139;-64
2021/05/31 11:11:38;;;;;;;10.90;5.43;;;;;;;25.98;49.36;99967.03;4916634;29;20459;-63
2021/05/31 11:14:07;;;;;;;10.85;4.43;;;;;;;25.92;49.71;99956.38;4916854;29;20408;-63
2021/05/31 11:16:36;;;;;;;7.25;4.18;;;;;;;26.07;49.22;99963.81;4916638;29;20143;-64
2021/05/31 11:19:09;;;;;;;5.55;3.88;;;;;;;26.09;49.30;99931.94;4916584;29;20044;-63
2021/05/31 11:21:40;;;;;;;7.43;3.60;;;;;;;26.31;48.88;99944.28;4916722;29;20498;-63
2021/05/31 11:24:20;;;;;;;8.43;4.43;;;;;;;26.39;48.52;99951.69;4916502;29;20138;-63
2021/05/31 11:26:48;;;;;;;9.45;4.35;;;;;;;26.23;48.33;99950.00;4918443;29;20123;-63
2021/05/31 11:29:15;;;;;;;6.47;3.88;;;;;;;26.37;48.71;99951.28;4920363;29;20079;-63
2021/05/31 11:31:44;;;;;;;6.43;3.83;;;;;;;26.35;47.97;99939.41;4920331;29;20458;-63
2021/05/31 11:34:12;;;;;;;;;;;;;;;26.20;49.90;99939.34;4920538;29;20126;-63
2021/05/31 11:36:41;;;;;;;5.97;3.70;;;;;;;26.52;48.48;99927.22;4920300;29;19927;-63
2021/05/31 11:39:19;;;;;;;5.82;3.53;;;;;;;26.74;48.02;99919.53;4920151;29;20568;-63
2021/05/31 11:41:51;;;;;;;6.40;3.55;;;;;;;27.00;47.03;99926.09;4918826;29;20576;-62
2021/05/31 11:44:20;;;;;;;8.07;3.72;;;;;;;27.20;46.76;99943.75;4919805;29;20139;-70
2021/05/31 11:46:50;;;;;;;6.18;2.90;;;;;;;27.08;46.96;99919.97;4919631;29;20091;-70
2021/05/31 11:49:19;;;;;;;5.28;3.33;;;;;;;27.25;46.25;99917.53;4919608;29;20135;-67
2021/05/31 11:52:12;;;;;;;7.07;3.73;;;;;;;27.41;46.44;99927.34;4919899;29;20136;-71